createdAt,value
2019-02-27T00:00:20.825Z,10.64
2019-02-27T00:02:53.752Z,10.73
2019-02-27T00:05:23.550Z,10.68
2019-02-27T00:07:54.987Z,10.66
2019-02-27T00:10:25.795Z,10.62
2019-02-27T00:12:56.544Z,10.64
2019-02-27T00:15:27.497Z,10.69
2019-02-27T00:17:57.973Z,10.69
2019-02-27T00:20:28.502Z,10.72
2019-02-27T00:22:59.257Z,10.69
2019-02-27T00:25:30.020Z,10.68
2019-02-27T00:28:00.772Z,10.63
2019-02-27T00:30:31.304Z,10.63
2019-02-27T00:33:02.285Z,10.61
2019-02-27T00:35:33.083Z,10.63
2019-02-27T00:38:03.871Z,10.57
2019-02-27T00:40:38.581Z,10.55
2019-02-27T00:43:07.093Z,10.50
2019-02-27T00:45:40.005Z,10.51
2019-02-27T00:48:10.073Z,10.41
2019-02-27T00:50:40.955Z,10.41
2019-02-27T00:53:11.488Z,10.33
2019-02-27T00:55:42.039Z,10.34
2019-02-27T00:58:12.539Z,10.25
2019-02-27T01:00:43.089Z,10.16
2019-02-27T01:03:13.814Z,10.11
2019-02-27T01:05:44.586Z,10.07
2019-02-27T01:08:15.140Z,10.03
2019-02-27T01:10:45.923Z,10.00
2019-02-27T01:13:16.470Z,9.89
2019-02-27T01:15:47.031Z,9.93
2019-02-27T01:18:17.522Z,9.89
2019-02-27T01:20:48.018Z,9.88
2019-02-27T01:23:18.544Z,9.82
2019-02-27T01:25:49.029Z,9.79
2019-02-27T01:28:19.779Z,9.78
2019-02-27T01:30:50.291Z,9.70
2019-02-27T01:33:21.165Z,9.75
2019-02-27T01:35:52.405Z,9.67
2019-02-27T01:38:22.970Z,9.65
2019-02-27T01:40:53.454Z,9.63
2019-02-27T01:43:24.188Z,9.68
2019-02-27T01:45:55.039Z,9.72
2019-02-27T01:48:25.538Z,9.76
2019-02-27T01:50:56.028Z,9.68
2019-02-27T01:53:26.544Z,9.60
2019-02-27T01:55:57.030Z,9.60
2019-02-27T01:58:27.759Z,9.60
2019-02-27T02:00:58.314Z,9.65
2019-02-27T02:03:29.050Z,9.62
2019-02-27T02:05:59.864Z,9.60
2019-02-27T02:08:30.446Z,9.54
2019-02-27T02:11:02.112Z,9.53
2019-02-27T02:14:21.651Z,9.52
2019-02-27T02:17:12.678Z,9.44
2019-02-27T02:20:20.679Z,9.41
2019-02-27T02:24:09.394Z,9.43
2019-02-27T02:27:27.481Z,9.37
2019-02-27T02:31:07.959Z,9.41
2019-02-27T02:34:41.120Z,9.35
2019-02-27T02:38:12.392Z,9.29
2019-02-27T02:41:25.277Z,9.20
2019-02-27T02:45:03.310Z,9.16
2019-02-27T02:48:14.008Z,9.21
2019-02-27T02:51:52.014Z,9.26
2019-02-27T02:54:55.145Z,9.16
2019-02-27T02:57:55.887Z,9.13
2019-02-27T03:01:15.202Z,9.06
2019-02-27T03:04:39.461Z,9.06
2019-02-27T03:08:23.973Z,9.05
2019-02-27T03:11:54.825Z,9.10
2019-02-27T03:14:44.293Z,9.07
2019-02-27T03:18:13.158Z,8.99
2019-02-27T03:21:28.592Z,9.03
2019-02-27T03:24:34.664Z,8.94
2019-02-27T03:28:08.370Z,8.91
2019-02-27T03:31:25.477Z,8.85
2019-02-27T03:35:00.698Z,8.87
2019-02-27T03:38:16.355Z,8.84
2019-02-27T03:41:38.383Z,8.74
2019-02-27T03:45:04.760Z,8.73
2019-02-27T03:48:50.567Z,8.75
2019-02-27T03:52:04.790Z,8.74
2019-02-27T03:55:38.913Z,8.68
2019-02-27T03:59:06.256Z,8.69
2019-02-27T04:02:30.776Z,8.74
2019-02-27T04:05:33.886Z,8.70
2019-02-27T04:08:57.396Z,8.66
2019-02-27T04:11:28.616Z,8.64
2019-02-27T04:14:04.691Z,8.63
2019-02-27T04:16:32.968Z,8.72
2019-02-27T04:19:05.102Z,8.74
2019-02-27T04:21:35.640Z,8.66
2019-02-27T04:24:06.237Z,8.67
2019-02-27T04:26:41.537Z,8.59
2019-02-27T04:29:08.958Z,8.60
2019-02-27T04:31:39.541Z,8.53
2019-02-27T04:34:10.146Z,8.50
2019-02-27T04:36:40.609Z,8.43
2019-02-27T04:39:11.133Z,8.35
2019-02-27T04:41:41.655Z,8.33
2019-02-27T04:44:12.159Z,8.21
2019-02-27T04:46:42.929Z,8.18
2019-02-27T04:49:13.419Z,8.22
2019-02-27T04:51:44.142Z,8.11
2019-02-27T04:54:14.632Z,8.11
2019-02-27T04:56:45.107Z,8.00
2019-02-27T04:59:18.273Z,7.96
2019-02-27T05:01:48.071Z,7.97
2019-02-27T05:04:18.530Z,7.95
2019-02-27T05:06:49.259Z,7.88
2019-02-27T05:09:20.065Z,7.87
2019-02-27T05:11:50.533Z,7.85
2019-02-27T05:14:21.293Z,7.81
2019-02-27T05:16:52.050Z,7.78
2019-02-27T05:19:22.520Z,7.73
2019-02-27T05:21:53.519Z,7.66
2019-02-27T05:24:24.268Z,7.66
2019-02-27T05:26:54.749Z,7.73
2019-02-27T05:29:25.237Z,7.67
2019-02-27T05:31:55.726Z,7.71
2019-02-27T05:34:26.306Z,7.65
2019-02-27T05:36:57.132Z,7.72
2019-02-27T05:39:27.629Z,7.65
2019-02-27T05:41:58.100Z,7.58
2019-02-27T05:44:28.601Z,7.57
2019-02-27T05:46:59.113Z,7.51
2019-02-27T05:49:29.588Z,7.49
2019-02-27T05:52:00.295Z,7.51
2019-02-27T05:54:32.384Z,7.52
2019-02-27T05:57:03.224Z,7.40
2019-02-27T05:59:33.693Z,7.44
2019-02-27T06:02:04.210Z,7.35
2019-02-27T06:04:34.667Z,7.34
2019-02-27T06:07:05.648Z,7.29
2019-02-27T06:09:36.171Z,7.33
2019-02-27T06:12:07.531Z,7.29
2019-02-27T06:14:38.618Z,7.25
2019-02-27T06:17:10.187Z,7.27
2019-02-27T06:19:41.357Z,7.27
2019-02-27T06:22:11.864Z,7.24
2019-02-27T06:24:45.259Z,7.22
2019-02-27T06:27:14.927Z,7.21
2019-02-27T06:29:45.400Z,7.17
2019-02-27T06:32:15.908Z,7.15
2019-02-27T06:34:46.440Z,7.14
2019-02-27T06:37:16.902Z,7.27
2019-02-27T06:39:47.494Z,7.27
2019-02-27T06:42:18.315Z,7.30
2019-02-27T06:44:48.906Z,7.29
2019-02-27T06:47:19.738Z,7.42
2019-02-27T06:49:51.869Z,7.51
2019-02-27T06:52:22.321Z,7.74
2019-02-27T06:54:53.150Z,7.98
2019-02-27T06:57:23.880Z,8.24
2019-02-27T06:59:57.493Z,8.49
2019-02-27T07:02:27.121Z,8.79
2019-02-27T07:04:57.574Z,9.04
2019-02-27T07:07:31.277Z,9.25
2019-02-27T07:10:01.411Z,9.50
2019-02-27T07:12:31.877Z,9.75
2019-02-27T07:15:02.345Z,10.03
2019-02-27T07:17:33.315Z,10.33
2019-02-27T07:20:03.803Z,10.65
2019-02-27T07:22:34.271Z,11.05
2019-02-27T07:25:06.637Z,11.48
2019-02-27T07:27:37.140Z,11.72
2019-02-27T07:30:10.973Z,11.83
2019-02-27T07:32:41.517Z,12.30
2019-02-27T07:35:12.414Z,12.49
2019-02-27T07:37:46.957Z,12.77
2019-02-27T07:40:16.109Z,13.03
2019-02-27T07:42:46.783Z,13.29
2019-02-27T07:45:18.321Z,13.39
2019-02-27T07:47:49.085Z,13.19
2019-02-27T07:50:19.602Z,13.09
2019-02-27T07:52:51.923Z,12.54
2019-02-27T07:55:23.674Z,12.42
2019-02-27T07:57:58.501Z,12.23
2019-02-27T08:00:26.934Z,12.81
2019-02-27T08:02:57.684Z,13.12
2019-02-27T08:05:29.179Z,13.66
2019-02-27T08:07:59.712Z,14.00
2019-02-27T08:10:30.443Z,14.40
2019-02-27T08:13:01.283Z,14.78
2019-02-27T08:15:31.781Z,15.21
2019-02-27T08:18:02.622Z,14.88
2019-02-27T08:20:34.179Z,15.57
2019-02-27T08:23:04.899Z,15.28
2019-02-27T08:25:35.655Z,15.77
2019-02-27T08:28:06.170Z,15.32
2019-02-27T08:30:36.659Z,15.43
2019-02-27T08:33:08.424Z,15.48
2019-02-27T08:35:39.589Z,15.38
2019-02-27T08:38:10.820Z,16.41
2019-02-27T08:40:41.296Z,16.02
2019-02-27T08:43:11.813Z,16.26
2019-02-27T08:45:42.323Z,15.39
2019-02-27T08:48:17.250Z,15.52
2019-02-27T08:50:46.911Z,15.69
2019-02-27T08:53:17.397Z,15.70
2019-02-27T08:55:47.841Z,15.84
2019-02-27T08:58:18.391Z,15.32
2019-02-27T09:00:49.135Z,16.04
2019-02-27T09:03:20.550Z,16.63
2019-02-27T09:05:53.765Z,17.07
2019-02-27T09:08:23.415Z,17.50
2019-02-27T09:10:54.194Z,16.54
2019-02-27T09:13:24.708Z,16.83
2019-02-27T09:15:55.439Z,17.13
2019-02-27T09:18:26.199Z,17.49
2019-02-27T09:20:56.779Z,18.13
2019-02-27T09:23:27.520Z,17.73
2019-02-27T09:26:02.459Z,17.95
2019-02-27T09:28:30.250Z,18.65
2019-02-27T09:31:04.253Z,18.61
2019-02-27T09:33:38.889Z,18.19
2019-02-27T09:36:07.945Z,18.59
2019-02-27T09:38:37.731Z,18.28
2019-02-27T09:41:12.219Z,19.22
2019-02-27T09:43:40.917Z,18.93
2019-02-27T09:46:11.474Z,18.50
2019-02-27T09:48:42.099Z,18.92
2019-02-27T09:51:12.876Z,18.73
2019-02-27T09:53:43.328Z,19.04
2019-02-27T09:56:13.932Z,19.38
2019-02-27T09:58:45.703Z,19.54
2019-02-27T10:01:18.616Z,19.81
2019-02-27T10:03:52.116Z,19.49
2019-02-27T10:06:21.967Z,20.11
2019-02-27T10:08:52.449Z,20.75
2019-02-27T10:11:23.069Z,20.77
2019-02-27T10:13:53.588Z,21.31
2019-02-27T10:16:24.641Z,21.23
2019-02-27T10:18:55.876Z,20.61
2019-02-27T10:21:26.637Z,20.53
2019-02-27T10:23:57.092Z,21.24
2019-02-27T10:26:27.591Z,21.77
2019-02-27T10:28:58.052Z,21.99
2019-02-27T10:31:28.802Z,21.74
2019-02-27T10:34:00.464Z,22.66
2019-02-27T10:36:31.335Z,22.95
2019-02-27T10:39:02.127Z,23.03
2019-02-27T10:41:33.153Z,23.18
2019-02-27T10:44:04.359Z,23.15
2019-02-27T10:46:34.861Z,23.51
2019-02-27T10:49:05.402Z,23.61
2019-02-27T10:51:35.862Z,23.59
2019-02-27T10:54:06.401Z,23.32
2019-02-27T10:56:37.137Z,23.40
2019-02-27T10:59:07.626Z,23.15
2019-02-27T11:01:38.391Z,23.46
2019-02-27T11:04:09.130Z,24.07
2019-02-27T11:06:39.857Z,23.07
2019-02-27T11:09:24.547Z,23.39
2019-02-27T11:11:55.048Z,24.53
2019-02-27T11:14:25.672Z,24.24
2019-02-27T11:17:01.934Z,24.44
2019-02-27T11:19:28.765Z,24.41
2019-02-27T11:21:59.507Z,24.12
2019-02-27T11:24:30.355Z,24.96
2019-02-27T11:27:03.473Z,24.73
2019-02-27T11:29:33.451Z,24.65
2019-02-27T11:32:03.998Z,24.79
2019-02-27T11:34:34.775Z,25.16
2019-02-27T11:37:05.666Z,25.43
2019-02-27T11:39:36.190Z,24.76
2019-02-27T11:42:06.818Z,24.80
2019-02-27T11:44:37.755Z,25.16
2019-02-27T11:47:11.327Z,24.98
2019-02-27T11:49:42.499Z,25.57
2019-02-27T11:52:13.411Z,25.53
2019-02-27T11:54:44.071Z,25.57
2019-02-27T11:57:14.655Z,25.43
2019-02-27T11:59:47.010Z,25.61
2019-02-27T12:02:17.968Z,25.77
2019-02-27T12:04:53.787Z,25.80
2019-02-27T12:07:21.187Z,25.57
2019-02-27T12:09:51.877Z,25.70
2019-02-27T12:12:23.965Z,25.66
2019-02-27T12:14:55.037Z,25.70
2019-02-27T12:17:25.805Z,25.54
2019-02-27T12:19:56.856Z,25.82
2019-02-27T12:22:27.619Z,26.08
2019-02-27T12:24:58.394Z,25.97
2019-02-27T12:27:47.834Z,26.20
2019-02-27T12:30:02.993Z,26.43
2019-02-27T12:32:34.681Z,26.20
2019-02-27T12:35:08.241Z,26.26
2019-02-27T12:37:39.175Z,26.50
2019-02-27T12:40:12.989Z,26.55
2019-02-27T12:42:43.712Z,26.59
2019-02-27T12:45:17.569Z,26.24
2019-02-27T12:47:48.268Z,25.89
2019-02-27T12:50:21.000Z,26.20
2019-02-27T12:52:51.818Z,26.14
2019-02-27T12:55:23.790Z,26.12
2019-02-27T12:57:54.394Z,26.52
2019-02-27T13:00:28.234Z,26.34
2019-02-27T13:02:59.262Z,26.13
2019-02-27T13:05:29.993Z,26.00
2019-02-27T13:08:00.510Z,26.26
2019-02-27T13:10:34.196Z,26.28
2019-02-27T13:13:03.645Z,26.36
2019-02-27T13:15:34.143Z,26.27
2019-02-27T13:18:04.982Z,26.39
2019-02-27T13:20:35.550Z,26.46
2019-02-27T13:23:06.379Z,26.04
2019-02-27T13:25:37.060Z,25.77
2019-02-27T13:28:07.811Z,26.24
2019-02-27T13:30:41.282Z,26.15
2019-02-27T13:33:10.800Z,26.05
2019-02-27T13:35:41.596Z,26.20
2019-02-27T13:38:12.175Z,26.23
2019-02-27T13:40:42.721Z,25.88
2019-02-27T13:43:14.313Z,26.33
2019-02-27T13:45:47.382Z,26.08
2019-02-27T13:48:18.401Z,25.88
2019-02-27T13:50:49.132Z,26.25
2019-02-27T13:53:25.745Z,25.74
2019-02-27T13:55:52.083Z,26.04
2019-02-27T13:58:22.819Z,25.83
2019-02-27T14:00:54.597Z,25.93
2019-02-27T14:03:25.058Z,25.80
2019-02-27T14:05:55.521Z,25.82
2019-02-27T14:08:25.997Z,25.68
2019-02-27T14:10:56.508Z,25.35
2019-02-27T14:16:01.572Z,25.16
2019-02-27T14:18:51.253Z,25.45
2019-02-27T14:21:40.873Z,25.37
2019-02-27T14:24:23.141Z,25.16
2019-02-27T14:27:14.549Z,24.96
2019-02-27T14:29:57.166Z,25.07
2019-02-27T14:32:47.325Z,24.88
2019-02-27T14:35:35.088Z,25.10
2019-02-27T14:38:22.931Z,24.95
2019-02-27T14:41:06.770Z,24.69
2019-02-27T14:44:15.247Z,24.53
2019-02-27T14:46:58.214Z,24.37
2019-02-27T14:49:40.152Z,24.16
2019-02-27T14:52:29.734Z,23.91
2019-02-27T14:55:12.911Z,24.00
2019-02-27T14:58:02.553Z,23.64
2019-02-27T15:00:44.506Z,23.23
2019-02-27T15:03:34.078Z,23.31
2019-02-27T15:06:19.377Z,23.28
2019-02-27T15:09:07.945Z,23.17
2019-02-27T15:11:50.752Z,23.00
2019-02-27T15:17:42.040Z,22.53
2019-02-27T15:20:31.767Z,22.32
2019-02-27T15:23:14.546Z,22.26
2019-02-27T15:26:04.125Z,22.14
2019-02-27T15:28:46.809Z,22.06
2019-02-27T15:31:36.425Z,21.81
2019-02-27T15:34:06.928Z,21.68
2019-02-27T15:36:56.517Z,21.43
2019-02-27T15:39:39.134Z,21.38
2019-02-27T15:42:28.793Z,21.28
2019-02-27T15:45:11.150Z,21.18
2019-02-27T15:48:00.748Z,20.99
2019-02-27T15:50:31.309Z,20.89
2019-02-27T15:53:01.940Z,20.71
2019-02-27T15:55:51.921Z,20.66
2019-02-27T15:58:41.948Z,20.56
2019-02-27T16:01:24.714Z,20.44
2019-02-27T16:04:14.164Z,20.37
2019-02-27T16:06:56.715Z,20.29
2019-02-27T16:09:46.344Z,20.12
2019-02-27T16:12:28.448Z,20.06
2019-02-27T16:15:18.416Z,19.98
2019-02-27T16:18:04.335Z,19.89
2019-02-27T16:20:52.383Z,19.84
2019-02-27T16:23:37.292Z,19.75
2019-02-27T16:26:27.161Z,19.73
2019-02-27T16:29:09.625Z,19.63
2019-02-27T16:31:59.362Z,19.60
2019-02-27T16:34:42.006Z,19.55
2019-02-27T16:37:31.609Z,19.43
2019-02-27T16:40:17.663Z,19.31
2019-02-27T16:43:05.632Z,19.15
2019-02-27T16:45:47.690Z,19.03
2019-02-27T16:48:37.669Z,18.91
2019-02-27T16:51:18.624Z,18.81
2019-02-27T16:54:09.127Z,18.65
2019-02-27T16:56:51.105Z,18.54
2019-02-27T16:59:42.214Z,18.40
2019-02-27T17:02:24.293Z,18.30
2019-02-27T17:05:14.048Z,18.20
2019-02-27T17:08:00.642Z,18.06
2019-02-27T17:10:51.670Z,17.94
2019-02-27T17:13:32.315Z,17.82
2019-02-27T17:19:23.556Z,17.56
2019-02-27T17:25:19.206Z,17.28
2019-02-27T17:31:12.234Z,16.99
2019-02-27T17:33:52.343Z,16.84
2019-02-27T17:36:34.723Z,16.71
2019-02-27T17:39:27.650Z,16.59
2019-02-27T17:42:08.987Z,16.46
2019-02-27T17:44:58.560Z,16.34
2019-02-27T17:47:40.391Z,16.26
2019-02-27T17:50:31.709Z,16.15
2019-02-27T17:53:14.795Z,16.06
2019-02-27T17:56:04.478Z,15.93
2019-02-27T17:58:46.424Z,15.82
2019-02-27T18:01:36.081Z,15.71
2019-02-27T18:04:18.595Z,15.65
2019-02-27T18:07:09.195Z,15.61
2019-02-27T18:09:51.163Z,15.59
2019-02-27T18:12:40.793Z,15.44
2019-02-27T18:15:23.723Z,15.33
2019-02-27T18:18:13.750Z,15.21
2019-02-27T18:20:56.767Z,15.11
2019-02-27T18:23:48.027Z,15.01
2019-02-27T18:26:31.196Z,14.94
2019-02-27T18:29:21.082Z,14.88
2019-02-27T18:32:06.367Z,14.79
2019-02-27T18:34:55.282Z,14.70
2019-02-27T18:37:39.366Z,14.65
2019-02-27T18:40:28.952Z,14.64
2019-02-27T18:43:11.499Z,14.69
2019-02-27T18:46:01.547Z,14.78
2019-02-27T18:48:44.472Z,14.84
2019-02-27T18:51:34.025Z,14.97
2019-02-27T18:54:16.213Z,15.11
2019-02-27T18:57:05.895Z,14.95
2019-02-27T18:59:48.535Z,14.87
2019-02-27T19:02:38.419Z,14.83
2019-02-27T19:05:20.389Z,14.92
2019-02-27T19:08:10.181Z,14.72
2019-02-27T19:10:53.568Z,14.60
2019-02-27T19:13:43.142Z,14.63
2019-02-27T19:16:25.725Z,14.59
2019-02-27T19:19:15.365Z,14.53
2019-02-27T19:21:57.227Z,14.45
2019-02-27T19:24:47.088Z,14.38
2019-02-27T19:27:27.797Z,14.43
2019-02-27T19:33:10.102Z,14.33
2019-02-27T19:35:59.756Z,14.26
2019-02-27T19:38:49.388Z,14.13
2019-02-27T19:41:35.206Z,14.01
2019-02-27T19:47:28.061Z,13.87
2019-02-27T19:50:18.104Z,13.81
2019-02-27T19:53:05.214Z,13.76
2019-02-27T19:55:44.706Z,13.67
2019-02-27T19:58:34.651Z,13.60
2019-02-27T20:01:17.694Z,13.50
2019-02-27T20:04:09.646Z,13.49
2019-02-27T20:06:51.869Z,13.38
2019-02-27T20:12:52.704Z,13.20
2019-02-27T20:15:42.728Z,13.13
2019-02-27T20:18:24.951Z,13.04
2019-02-27T20:21:15.138Z,12.94
2019-02-27T20:24:01.249Z,12.88
2019-02-27T20:26:53.836Z,12.79
2019-02-27T20:29:36.455Z,12.75
2019-02-27T20:32:28.318Z,12.69
2019-02-27T20:35:09.769Z,12.63
2019-02-27T20:38:01.523Z,12.63
2019-02-27T20:40:44.649Z,12.58
2019-02-27T20:43:34.576Z,12.56
2019-02-27T20:46:16.644Z,12.53
2019-02-27T20:49:06.774Z,12.52
2019-02-27T20:51:49.725Z,12.47
2019-02-27T20:54:39.827Z,12.42
2019-02-27T20:57:23.290Z,12.37
2019-02-27T21:00:14.918Z,12.27
2019-02-27T21:03:00.687Z,12.25
2019-02-27T21:05:50.557Z,12.25
2019-02-27T21:08:33.349Z,12.24
2019-02-27T21:11:29.570Z,12.24
2019-02-27T21:14:09.613Z,12.27
2019-02-27T21:16:59.426Z,12.24
2019-02-27T21:19:41.675Z,12.19
2019-02-27T21:22:31.658Z,12.18
2019-02-27T21:25:14.953Z,12.14
2019-02-27T21:28:07.651Z,12.04
2019-02-27T21:30:52.276Z,12.01
2019-02-27T21:33:42.467Z,12.01
2019-02-27T21:36:25.412Z,12.00
2019-02-27T21:42:22.084Z,11.97
2019-02-27T21:45:16.246Z,11.92
2019-02-27T21:48:06.153Z,11.86
2019-02-27T21:50:48.960Z,11.86
2019-02-27T21:53:38.697Z,11.89
2019-02-27T21:56:19.403Z,11.82
2019-02-27T21:59:04.896Z,11.79
2019-02-27T22:01:56.259Z,11.80
2019-02-27T22:04:37.368Z,11.72
2019-02-27T22:07:26.969Z,11.78
2019-02-27T22:10:08.931Z,11.71
2019-02-27T22:12:58.578Z,11.66
2019-02-27T22:15:41.080Z,11.67
2019-02-27T22:21:37.887Z,11.69
2019-02-27T22:24:27.881Z,11.69
2019-02-27T22:27:36.465Z,11.67
2019-02-27T22:30:18.733Z,11.63
2019-02-27T22:33:08.622Z,11.52
2019-02-27T22:35:49.447Z,11.52
2019-02-27T22:38:31.842Z,11.48
2019-02-27T22:44:29.095Z,11.47
2019-02-27T22:50:20.403Z,11.35
2019-02-27T22:53:02.576Z,11.23
2019-02-27T22:55:52.492Z,11.21
2019-02-27T22:58:35.110Z,11.20
2019-02-27T23:07:10.172Z,11.00
2019-02-27T23:13:12.431Z,10.87
2019-02-27T23:15:59.164Z,10.82
2019-02-27T23:18:48.838Z,10.85
2019-02-27T23:21:31.189Z,10.81
2019-02-27T23:24:20.878Z,10.74
2019-02-27T23:27:04.173Z,10.69
2019-02-27T23:29:46.396Z,10.65
2019-02-27T23:32:36.313Z,10.68
2019-02-27T23:35:18.859Z,10.78
2019-02-27T23:38:08.565Z,10.79
2019-02-27T23:40:50.160Z,10.75
2019-02-27T23:43:40.070Z,10.76
2019-02-27T23:46:22.279Z,10.65
2019-02-27T23:52:19.218Z,10.58
2019-02-27T23:55:10.892Z,10.51
2019-02-27T23:57:57.569Z,10.46
